Airfield :
LOGIN :

Register | Disclaimer

   EN    FR    IT 

 










Legend :    VFR   Marginal VFR   IFR   Intensive IFR   Very Intensive IFR
Visi :
Ceiling :
>= 8 km
>= 3000ft
5 to 8 km
1000 to 3000 ft
1500m to 5 km
500 to 1000 ft
800 to 1500m
200 to 500 ft
< 800m
< 200 ft
Symbols :   Thunderstorms  Fog  Heavy snow  Heavy precipitations  Wind > 20 kt
SIGMETs :     Misc.  Thunderstorms  Icing  Turbulence  Mountain Waves  Volcanic Ashes






- Airport Elevation : 156 ft
- IATA code : MLN


GEML - Melilla

CURRENT METAR :
  • 220430Z AUTO VRB01KT CAVOK 15/10 Q1008

EXPIRED METARs :
  • 220400Z AUTO 25001KT CAVOK 15/10 Q1008
  • 220330Z AUTO 20002KT CAVOK 14/10 Q1008
  • 220300Z AUTO 23001KT CAVOK 14/10 Q1009
  • 220230Z AUTO VRB02KT CAVOK 14/10 Q1009
  • 220200Z AUTO 00000KT CAVOK 13/10 Q1009

TAF TAF GEML
Valid from the 22 at 03:00 until the 23 at 03:00 UTC


220200Z 2203/2303 26008KT 9999 FEW040 TX19/2213Z TN13/2206Z
PROB30
TEMPO 2208/2216 RA BKN012
PROB40
TEMPO 2221/2303 28020G35KT 3000 SHRA BKN010 SCT020CB



MET'MAP, your aeronautical weather chart ! - Copyright ORBIFLY December 2007 - Disclaimer

ORBIFLY MET'MAP TEAM :

Programming & Development : Alexandra Zaïnal
Concept & Development : Baudouin d'Aumeries
Co-Development & Prog : Marc-Olivier Méhu
Technical & hardware support : Manuel Goepfert

Contact : metmap@orbifly.com




SOURCES & CREDITS :

   NOAA